Orbital elements of METEOSAT-10
| Launched | 4 July 2012 |
| Flight ended | – |
| Launch site | Europe's Spaceport, Kourou, French Guiana |
| Owner | European Organization for the Exploitation of Meteorological Satellites (EUMETSAT) |
| NORAD ID | 38552 |
| Alternative names |
MSG-3 |
| Date fetched |
Epoch osculation |
Inc. [°] |
Ecc. | RA asc node [hr] |
Arg Peri. [°] |
Mean anom [°] |
Mean motion [rev/day] |
Abs. mag |
| Date fetched |
Epoch osculation |
Inc. [°] |
Ecc. | RA asc node [hr] |
Arg Peri. [°] |
Mean anom [°] |
Mean motion [rev/day] |
Abs. mag |
| 2026 May 07 17:58 | 2026 May 07 02:49:41 | 4.5751 | 0.00021 | 4.0794 | 326.0023 | 240.2835 | 1.00270 | – |
| 2026 May 06 17:57 | 2026 May 06 02:52:19 | 4.5730 | 0.00021 | 4.0797 | 325.6048 | 240.2835 | 1.00270 | – |
| 2026 May 05 17:57 | 2026 May 05 02:54:52 | 4.5708 | 0.00021 | 4.0800 | 324.9676 | 240.2835 | 1.00270 | – |
| 2026 May 04 17:57 | 2026 May 04 02:57:30 | 4.5687 | 0.00022 | 4.0804 | 324.1792 | 240.2835 | 1.00270 | – |
| 2026 May 03 17:57 | 2026 May 03 03:00:04 | 4.5666 | 0.00022 | 4.0807 | 323.1646 | 240.2835 | 1.00270 | – |
| 2026 May 02 17:57 | 2026 May 02 03:02:36 | 4.5644 | 0.00022 | 4.0810 | 321.9625 | 240.2835 | 1.00270 | – |
| 2026 May 01 17:56 | 2026 May 01 03:05:13 | 4.5623 | 0.00022 | 4.0813 | 320.4507 | 240.2835 | 1.00270 | – |
| 2026 Apr 30 17:56 | 2026 Apr 30 04:08:38 | 4.5602 | 0.00022 | 4.0816 | 318.9562 | 240.2835 | 1.00270 | – |
| 2026 Apr 29 17:57 | 2026 Apr 29 03:10:16 | 4.5580 | 0.00021 | 4.0819 | 317.0337 | 240.2835 | 1.00270 | – |
| 2026 Apr 28 17:56 | 2026 Apr 28 01:30:13 | 4.5556 | 0.00021 | 4.0822 | 315.0050 | 240.2835 | 1.00270 | – |
| 2026 Apr 27 17:58 | 2026 Apr 27 02:53:38 | 4.5534 | 0.00021 | 4.0824 | 313.1941 | 240.2835 | 1.00270 | – |
| 2026 Apr 26 17:58 | 2026 Apr 26 05:00:40 | 4.5512 | 0.00021 | 4.0826 | 311.7157 | 240.2835 | 1.00270 | – |
| 2026 Apr 25 17:58 | 2026 Apr 25 05:03:18 | 4.5488 | 0.00020 | 4.0828 | 310.1865 | 240.2835 | 1.00270 | – |
| 2026 Apr 24 17:59 | 2026 Apr 23 17:07:09 | 4.5450 | 0.00022 | 4.0831 | 292.4510 | 240.2835 | 1.00270 | – |
| 2026 Apr 23 17:57 | 2026 Apr 23 04:48:38 | 4.5436 | 0.00022 | 4.0832 | 292.0232 | 240.2835 | 1.00270 | – |
| 2026 Apr 22 17:57 | 2026 Apr 22 03:28:14 | 4.5409 | 0.00022 | 4.0834 | 290.8302 | 240.2835 | 1.00270 | – |
| 2026 Apr 21 17:57 | 2026 Apr 21 05:13:33 | 4.5384 | 0.00022 | 4.0835 | 290.1929 | 240.2835 | 1.00270 | – |
| 2026 Apr 20 17:57 | 2026 Apr 20 05:16:03 | 4.5357 | 0.00022 | 4.0837 | 289.9872 | 240.2835 | 1.00270 | – |
| 2026 Apr 19 17:58 | 2026 Apr 19 05:18:39 | 4.5330 | 0.00022 | 4.0839 | 290.2734 | 240.2835 | 1.00270 | – |
| 2026 Apr 18 17:56 | 2026 Apr 18 05:21:11 | 4.5304 | 0.00022 | 4.0841 | 290.9908 | 240.2835 | 1.00270 | – |
| 2026 Apr 16 17:57 | 2026 Apr 16 03:10:38 | 4.5248 | 0.00022 | 4.0846 | 293.2120 | 240.2835 | 1.00270 | – |
| 2026 Apr 14 17:57 | 2026 Apr 14 05:31:28 | 4.5200 | 0.00022 | 4.0852 | 295.4295 | 240.2835 | 1.00270 | – |
| 2026 Apr 13 17:57 | 2026 Apr 13 02:08:41 | 4.5173 | 0.00022 | 4.0855 | 296.5244 | 240.2835 | 1.00270 | – |
| 2026 Apr 12 17:57 | 2026 Apr 12 03:53:54 | 4.5151 | 0.00022 | 4.0858 | 297.5304 | 240.2835 | 1.00270 | – |
| 2026 Apr 11 17:57 | 2026 Apr 11 05:39:06 | 4.5129 | 0.00023 | 4.0861 | 298.4247 | 240.2835 | 1.00270 | – |
| 2026 Apr 10 17:58 | 2026 Apr 10 05:41:37 | 4.5107 | 0.00023 | 4.0864 | 299.0808 | 240.2835 | 1.00270 | – |